Terminal Aerodrome Forecast
Issued by NWS

Home | Current Version | Previous Version | Text Only | Print | Product List | Glossary Off
Versions: 1 2 3 4 5 6 7 8 9 10 11 12 13 14 15 16 17 18 19 20 21 22 23 24 25 26 27 28 29

000
FTUS43 KABR 292300 CCA
TAFPIR
TAF COR
KPIR 292343Z 3000/3024 12012KT P6SM BKN025
     FM300200 11018KT P6SM -SHRA VCTS SCT015CB OVC025
     FM300600 11023G30KT 5SM -SHRA BR OVC007=

USA.gov is the U.S. government's official web portal to all federal, state and local government web resources and services.